Flight Track Log - Related Links

Times and Time Zones

All times are in EDT time to prevent confusion due to time zone crossing. See the RPA3242 flight status page for this flight to view local times or setup timezone preferences in your user account.

Time Position Orientation Groundspeed Altitude Reporting Facility
EDT Latitude Longitude Course Direction KTS km/h feet Rate Location/Type
Fri 21:40:43 39.8667 -75.2667 38° Northeast 162 299 600  Level Philadelphia TRACON
Fri 21:41:31 39.8333 -75.3000 218° Southwest 191 354 2.000 1.889 Climbing Philadelphia TRACON
Fri 21:42:31 39.7667 -75.3500 210° Southwest 278 515 4.000 2.614 Climbing Philadelphia TRACON
Fri 21:43:00 39.8055 -74.8109 105° East  Level FlightAware Approximate
Fri 21:44:00 39.7842 -74.7043 105° East  Level FlightAware Approximate
Fri 21:44:53 39.6956 -75.2306 128° Southeast 172 319 10.800  Level New York Center
Fri 21:45:00 39.8477 -74.6357 37° Northeast  Level FlightAware Approximate
Fri 21:45:51 39.7164 -75.1239 76° East 241 446 12.300  Level New York Center
Fri 21:46:00 39.9148 -74.5685 38° Northeast  Level FlightAware Approximate
Fri 21:46:53 39.7400 -74.9906 77° East 298 552 12.200  Level New York Center
Fri 21:47:51 39.7606 -74.8836 76° East 335 621 12.200 655 Level New York Center
Fri 21:48:52 39.7856 -74.7636 75° East 340 629 13.500 1.835 Climbing New York Center
Fri 21:49:52 39.8578 -74.6569 49° Northeast 341 631 15.900 1.884 Climbing New York Center
Fri 21:50:53 39.9442 -74.5694 38° Northeast 351 650 17.300 1.686 Climbing New York Center
Fri 21:51:53 40.0344 -74.4822 36° Northeast 373 690 19.300 1.714 Climbing New York Center
Fri 21:52:52 40.1269 -74.3894 37° Northeast 401 742 20.700 1.664 Climbing New York Center
Fri 21:53:52 40.2258 -74.2914 37° Northeast 421 779 22.600 1.636 Climbing New York Center
Fri 21:54:53 40.3286 -74.1958 35° Northeast 435 806 24.000 706 Climbing New York Center
Fri 21:55:51 40.4456 -74.1092 29° Northeast 457 847 24.000  Level New York Center
Fri 21:56:51 40.5669 -74.0247 28° Northeast 478 885 24.000  Level New York Center
Fri 21:59:15 40.8247 -73.8225 31° Northeast 488 904 24.000 -29 Level Boston Center
Fri 22:00:15 40.9411 -73.6739 44° Northeast 476 882 23.900  Descending Boston Center
Fri 22:01:15 41.0297 -73.5764 40° Northeast 471 872 24.000 -318 Climbing Boston Center
Fri 22:02:27 41.1244 -73.4597 43° Northeast 465 861 23.200 -1.364 Descending Boston Center
Fri 22:03:27 41.2342 -73.3206 44° Northeast 440 814 21.000 -2.000 Descending Boston Center
Fri 22:04:27 41.3242 -73.2417 33° Northeast 422 782 19.200 -1.000 Descending Boston Center
Fri 22:05:27 41.4469 -73.2625 353° North 381 705 19.000 -100 Descending Boston Center
Fri 22:06:27 41.5469 -73.3000 344° North 395 732 19.000  Level Boston Center
Fri 22:07:27 41.6611 -73.3458 343° North 395 732 19.000  Level Boston Center
Fri 22:08:27 41.7711 -73.3892 344° North 402 745 19.000 -300 Level Boston Center
Fri 22:09:27 41.8750 -73.4325 343° North 402 745 18.400 -1.050 Descending Boston Center
Fri 22:10:27 41.9747 -73.4733 343° North 390 723 16.900 -1.091 Descending Boston Center
Fri 22:10:44 42.0039 -73.4850 343° North 379 702 17.000 -792 Climbing Boston Center
Fri 22:11:20 42.0639 -73.5083 344° North 373 690 16.200 -1.485 Descending Boston Center
Fri 22:12:21 42.1617 -73.5436 345° North 364 674 14.600 -1.370 Descending Boston Center
Fri 22:13:27 42.2444 -73.5956 335° Northwest 363 673 13.300 -2.033 Descending Boston Center
Fri 22:14:22 42.3356 -73.6533 335° Northwest 309 573 10.500 -2.638 Descending Boston Center
Fri 22:15:23 42.4081 -73.6997 335° Northwest 281 520 8.200 -2.182 Descending Boston Center
Fri 22:16:23 42.4722 -73.7461 332° Northwest 261 483 6.100 -1.835 Descending Boston Center
Fri 22:17:24 42.5217 -73.7781 335° Northwest 172 319 4.500 -1.597 Descending Boston Center
Fri 22:18:27 42.5653 -73.7989 341° North 175 323 2.800 -942 Descending Boston Center
Fri 22:19:25 42.5964 -73.8022 355° North 116 214 2.600 -151 Descending Boston Center
Fri 22:20:26 42.6297 -73.8003 North 116 214 2.500 -397 Descending Boston Center
Fri 22:21:26 42.6631 -73.8039 355° North 120 222 1.800 -694 Descending Boston Center
Fri 22:22:27 42.6986 -73.8044 359° North 124 230 1.100 -689 Descending Boston Center

Login

Don't have an account? Register now (free) for customized features, flight alerts, and more!